Time;durP1;ratioP1;P1;durP2;ratioP2;P2;SDS_P1;SDS_P2;PMS_P1;PMS_P2;Temp;Humidity;BMP_temperature;BMP_pressure;BME280_temperature;BME280_humidity;BME280_pressure;Samples;Min_cycle;Max_cycle;Signal;HPM_P1;HPM_P2
2022/06/13 00:01:21;;;;;;;;;;;;;;;;;;5056239;28;19915;-46
2022/06/13 00:03:48;;;;;;;;;;;;;;;;;;5069380;28;20370;-49
2022/06/13 00:06:15;;;;;;;;;;;;;;;;;;5068272;28;19905;-50
2022/06/13 00:08:41;;;;;;;;;;;;;;;;;;5055819;28;20011;-46
2022/06/13 00:11:09;;;;;;;;;;;;;;;;;;5064560;28;20023;-46
2022/06/13 00:13:35;;;;;;;;;;;;;;;;;;5063144;28;19908;-47
2022/06/13 00:16:01;;;;;;;;;;;;;;;;;;5064734;28;19953;-48
2022/06/13 00:18:27;;;;;;;;;;;;;;;;;;5058162;28;19909;-46
2022/06/13 00:20:53;;;;;;;;;;;;;;;;;;5054703;28;19912;-47
2022/06/13 00:23:19;;;;;;;;;;;;;;;;;;5065013;28;19998;-46
2022/06/13 00:25:45;;;;;;;;;;;;;;;;;;5063198;28;19948;-47
2022/06/13 00:28:10;;;;;;;;;;;;;;;;;;5064463;28;19916;-48
2022/06/13 00:30:37;;;;;;;;;;;;;;;;;;5064298;28;19904;-46
2022/06/13 00:33:03;;;;;;;;;;;;;;;;;;5064297;28;19908;-46
2022/06/13 00:35:29;;;;;;;;;;;;;;;;;;5057187;28;19923;-47
2022/06/13 00:37:55;;;;;;;;;;;;;;;;;;5042535;28;19919;-47
2022/06/13 00:40:22;;;;;;;;;;;;;;;;;;5063527;28;19909;-46
2022/06/13 00:42:48;;;;;;;;;;;;;;;;;;5064659;28;19908;-48
2022/06/13 00:45:14;;;;;;;;;;;;;;;;;;5064385;28;19915;-47
2022/06/13 00:47:40;;;;;;;;;;;;;;;;;;5053928;28;19916;-45
2022/06/13 00:50:06;;;;;;;;;;;;;;;;;;5055973;28;19908;-48
2022/06/13 00:52:33;;;;;;;;;;;;;;;;;;5054869;28;19912;-48
2022/06/13 00:54:59;;;;;;;;;;;;;;;;;;5046094;28;19920;-47
2022/06/13 00:57:25;;;;;;;;;;;;;;;;;;5046364;28;19908;-46
2022/06/13 00:59:51;;;;;;;;;;;;;;;;;;5045964;28;19999;-44
2022/06/13 01:02:17;;;;;;;;;;;;;;;;;;5046246;28;19909;-47
2022/06/13 01:04:43;;;;;;;;;;;;;;;;;;5045824;28;19960;-46
2022/06/13 01:07:09;;;;;;;;;;;;;;;;;;5045953;28;19908;-48
2022/06/13 01:12:20;;;;;;;;;;;;;;;;;;5066755;28;20555;-48
2022/06/13 01:14:46;;;;;;;;;;;;;;;;;;5069010;28;19908;-48
2022/06/13 01:17:12;;;;;;;;;;;;;;;;;;5062762;28;20429;-48
2022/06/13 01:19:39;;;;;;;;;;;;;;;;;;5060038;28;20023;-48
2022/06/13 01:22:04;;;;;;;;;;;;;;;;;;5069565;28;19957;-46
2022/06/13 01:24:30;;;;;;;;;;;;;;;;;;5069907;28;19904;-48
2022/06/13 01:26:58;;;;;;;;;;;;;;;;;;5069049;28;19995;-46
2022/06/13 01:29:24;;;;;;;;;;;;;;;;;;5068599;28;19927;-47
2022/06/13 01:31:50;;;;;;;;;;;;;;;;;;5069467;28;19904;-48
2022/06/13 01:34:16;;;;;;;;;;;;;;;;;;5069817;28;19943;-47
2022/06/13 01:36:42;;;;;;;;;;;;;;;;;;5069353;28;19908;-48
2022/06/13 01:39:07;;;;;;;;;;;;;;;;;;5068687;28;19999;-46
2022/06/13 01:41:33;;;;;;;;;;;;;;;;;;5069445;28;20081;-47
2022/06/13 01:43:59;;;;;;;;;;;;;;;;;;5069139;28;19908;-48
2022/06/13 01:46:25;;;;;;;;;;;;;;;;;;5069356;28;19908;-45
2022/06/13 01:48:51;;;;;;;;;;;;;;;;;;5062374;28;19920;-45
2022/06/13 01:51:17;;;;;;;;;;;;;;;;;;5049849;28;19967;-48
2022/06/13 01:53:43;;;;;;;;;;;;;;;;;;5048697;28;19920;-48
2022/06/13 01:56:09;;;;;;;;;;;;;;;;;;5048961;28;19974;-46
2022/06/13 01:58:35;;;;;;;;;;;;;;;;;;5052562;28;20003;-48
2022/06/13 02:01:01;;;;;;;;;;;;;;;;;;5068667;28;19908;-45
2022/06/13 02:03:27;;;;;;;;;;;;;;;;;;5068684;28;20256;-46
2022/06/13 02:05:53;;;;;;;;;;;;;;;;;;5068764;28;19915;-48
2022/06/13 02:08:19;;;;;;;;;;;;;;;;;;5067702;28;20489;-49
2022/06/13 02:10:45;;;;;;;;;;;;;;;;;;5048658;28;19905;-49
2022/06/13 02:13:11;;;;;;;;;;;;;;;;;;5048895;28;19916;-48
2022/06/13 02:15:37;;;;;;;;;;;;;;;;;;5048715;28;19936;-47
2022/06/13 02:18:03;;;;;;;;;;;;;;;;;;5060232;28;19940;-47
2022/06/13 02:20:29;;;;;;;;;;;;;;;;;;5067699;28;19912;-48
2022/06/13 02:22:54;;;;;;;;;;;;;;;;;;5068477;28;19927;-46
2022/06/13 02:25:20;;;;;;;;;;;;;;;;;;5068667;28;19977;-47
2022/06/13 02:27:47;;;;;;;;;;;;;;;;;;5068963;28;19916;-47
2022/06/13 02:30:13;;;;;;;;;;;;;;;;;;5052139;28;20008;-47
2022/06/13 02:32:39;;;;;;;;;;;;;;;;;;5048397;28;20003;-48
2022/06/13 02:35:05;;;;;;;;;;;;;;;;;;5048312;28;19927;-47
2022/06/13 02:37:31;;;;;;;;;;;;;;;;;;5048416;28;19916;-48
2022/06/13 02:39:57;;;;;;;;;;;;;;;;;;5061658;28;20302;-48
2022/06/13 02:42:23;;;;;;;;;;;;;;;;;;5067751;28;19916;-48
2022/06/13 02:44:49;;;;;;;;;;;;;;;;;;5068423;28;19904;-49
2022/06/13 02:47:15;;;;;;;;;;;;;;;;;;5068016;28;20003;-46
2022/06/13 02:49:41;;;;;;;;;;;;;;;;;;5052133;28;19947;-46
2022/06/13 02:52:07;;;;;;;;;;;;;;;;;;5066159;28;19915;-46
2022/06/13 02:54:33;;;;;;;;;;;;;;;;;;5067969;28;19912;-46
2022/06/13 02:59:43;;;;;;;;;;;;;;;;;;5067579;28;20707;-48
2022/06/13 03:02:10;;;;;;;;;;;;;;;;;;5066832;28;19940;-48
2022/06/13 03:04:36;;;;;;;;;;;;;;;;;;5067744;28;19909;-45
2022/06/13 03:07:02;;;;;;;;;;;;;;;;;;5067385;28;19911;-47
2022/06/13 03:09:28;;;;;;;;;;;;;;;;;;5067416;28;19908;-44
2022/06/13 03:11:54;;;;;;;;;;;;;;;;;;5066516;28;19912;-48
2022/06/13 03:14:20;;;;;;;;;;;;;;;;;;5068182;28;19911;-47
2022/06/13 03:16:46;;;;;;;;;;;;;;;;;;5066329;28;19916;-48
2022/06/13 03:19:12;;;;;;;;;;;;;;;;;;5066086;28;20003;-47
2022/06/13 03:21:38;;;;;;;;;;;;;;;;;;5064976;28;19909;-48
2022/06/13 03:24:04;;;;;;;;;;;;;;;;;;5067429;28;19912;-48
2022/06/13 03:26:30;;;;;;;;;;;;;;;;;;5067060;28;19915;-47
2022/06/13 03:28:56;;;;;;;;;;;;;;;;;;5065764;28;19915;-48
2022/06/13 03:31:21;;;;;;;;;;;;;;;;;;5066841;28;19911;-45
2022/06/13 03:33:47;;;;;;;;;;;;;;;;;;5065375;28;19904;-48
2022/06/13 03:36:13;;;;;;;;;;;;;;;;;;5047032;28;19936;-45
2022/06/13 03:38:39;;;;;;;;;;;;;;;;;;5046162;28;19908;-47
2022/06/13 03:41:05;;;;;;;;;;;;;;;;;;5065653;28;19908;-48
2022/06/13 03:43:31;;;;;;;;;;;;;;;;;;5067031;28;19926;-45
2022/06/13 03:45:57;;;;;;;;;;;;;;;;;;5066825;28;19911;-44
2022/06/13 03:48:23;;;;;;;;;;;;;;;;;;5059662;28;19925;-46
2022/06/13 03:50:49;;;;;;;;;;;;;;;;;;5053753;28;19973;-48
2022/06/13 03:53:15;;;;;;;;;;;;;;;;;;5046999;28;19987;-47
2022/06/13 03:55:41;;;;;;;;;;;;;;;;;;5046350;28;19916;-47
2022/06/13 03:58:07;;;;;;;;;;;;;;;;;;5046508;28;19908;-47
2022/06/13 04:00:33;;;;;;;;;;;;;;;;;;5056942;28;19912;-48
2022/06/13 04:02:59;;;;;;;;;;;;;;;;;;5066899;28;20441;-48
2022/06/13 04:05:25;;;;;;;;;;;;;;;;;;5066621;28;19909;-47
2022/06/13 04:07:51;;;;;;;;;;;;;;;;;;5065290;28;19913;-47
2022/06/13 04:10:17;;;;;;;;;;;;;;;;;;5046945;28;19953;-46
2022/06/13 04:12:43;;;;;;;;;;;;;;;;;;5046745;28;19970;-48
2022/06/13 04:15:08;;;;;;;;;;;;;;;;;;5046601;28;19908;-48
2022/06/13 04:17:34;;;;;;;;;;;;;;;;;;5062953;28;19946;-47
2022/06/13 04:20:00;;;;;;;;;;;;;;;;;;5066544;28;19908;-48
2022/06/13 04:22:26;;;;;;;;;;;;;;;;;;5065945;28;19908;-46
2022/06/13 04:24:52;;;;;;;;;;;;;;;;;;5052584;28;19931;-48
2022/06/13 04:27:18;;;;;;;;;;;;;;;;;;5052746;28;19915;-48
2022/06/13 04:29:44;;;;;;;;;;;;;;;;;;5066131;28;19943;-48
2022/06/13 04:32:10;;;;;;;;;;;;;;;;;;5066515;28;19912;-45
2022/06/13 04:34:36;;;;;;;;;;;;;;;;;;5066344;28;20911;-45
2022/06/13 04:37:02;;;;;;;;;;;;;;;;;;5066245;28;19909;-48
2022/06/13 04:39:28;;;;;;;;;;;;;;;;;;5066164;28;19905;-48
2022/06/13 04:41:54;;;;;;;;;;;;;;;;;;5065545;28;19958;-47
2022/06/13 04:44:20;;;;;;;;;;;;;;;;;;5067095;28;20006;-47
2022/06/13 04:46:46;;;;;;;;;;;;;;;;;;5065478;28;19916;-44
2022/06/13 04:49:12;;;;;;;;;;;;;;;;;;5068165;28;19965;-47
2022/06/13 04:51:38;;;;;;;;;;;;;;;;;;5070046;28;19904;-47
2022/06/13 04:54:04;;;;;;;;;;;;;;;;;;5070271;28;19995;-46
2022/06/13 04:56:30;;;;;;;;;;;;;;;;;;5069628;28;19928;-45
2022/06/13 04:58:56;;;;;;;;;;;;;;;;;;5069423;28;19912;-47
2022/06/13 05:01:22;;;;;;;;;;;;;;;;;;5069693;28;19947;-49
2022/06/13 05:03:48;;;;;;;;;;;;;;;;;;5070650;28;19970;-47
2022/06/13 05:06:14;;;;;;;;;;;;;;;;;;5070019;28;19943;-48
2022/06/13 05:08:41;;;;;;;;;;;;;;;;;;5052571;28;19951;-46
2022/06/13 05:11:07;;;;;;;;;;;;;;;;;;5069934;28;20023;-46
2022/06/13 05:13:33;;;;;;;;;;;;;;;;;;5069474;28;19991;-47
2022/06/13 05:15:58;;;;;;;;;;;;;;;;;;5069805;28;19949;-47
2022/06/13 05:18:24;;;;;;;;;;;;;;;;;;5068034;28;19908;-45
2022/06/13 05:20:50;;;;;;;;;;;;;;;;;;5070150;28;19948;-47
2022/06/13 05:23:16;;;;;;;;;;;;;;;;;;5054788;28;19916;-48
2022/06/13 05:25:43;;;;;;;;;;;;;;;;;;5049906;28;19913;-47
2022/06/13 05:28:09;;;;;;;;;;;;;;;;;;5049565;28;20404;-45
2022/06/13 05:30:35;;;;;;;;;;;;;;;;;;5049199;28;19909;-45
2022/06/13 05:33:01;;;;;;;;;;;;;;;;;;5049389;28;19919;-45
2022/06/13 05:35:27;;;;;;;;;;;;;;;;;;5055854;28;19912;-45
2022/06/13 05:37:54;;;;;;;;;;;;;;;;;;5065617;28;19915;-46
2022/06/13 05:40:20;;;;;;;;;;;;;;;;;;5070878;28;19919;-45
2022/06/13 05:42:46;;;;;;;;;;;;;;;;;;5069560;28;19908;-47
2022/06/13 05:45:12;;;;;;;;;;;;;;;;;;5069131;28;19931;-45
2022/06/13 05:47:38;;;;;;;;;;;;;;;;;;5056294;28;20368;-46
2022/06/13 05:50:04;;;;;;;;;;;;;;;;;;5063517;28;19923;-45
2022/06/13 05:52:30;;;;;;;;;;;;;;;;;;5068884;28;19909;-45
2022/06/13 05:54:56;;;;;;;;;;;;;;;;;;5068012;28;19923;-46
2022/06/13 05:57:22;;;;;;;;;;;;;;;;;;5066145;28;20133;-44
2022/06/13 05:59:49;;;;;;;;;;;;;;;;;;5048670;28;19920;-44
2022/06/13 06:02:15;;;;;;;;;;;;;;;;;;5048469;28;19955;-44
2022/06/13 06:04:41;;;;;;;;;;;;;;;;;;5049779;28;19920;-45
2022/06/13 06:07:07;;;;;;;;;;;;;;;;;;5048878;28;19909;-44
2022/06/13 06:09:33;;;;;;;;;;;;;;;;;;5048649;28;19931;-49
2022/06/13 06:11:59;;;;;;;;;;;;;;;;;;5048678;28;19905;-45
2022/06/13 06:14:25;;;;;;;;;;;;;;;;;;5048547;28;19908;-47
2022/06/13 06:16:51;;;;;;;;;;;;;;;;;;5049360;28;19932;-45
2022/06/13 06:19:16;;;;;;;;;;;;;;;;;;5047762;28;19936;-46
2022/06/13 06:21:42;;;;;;;;;;;;;;;;;;5048590;28;19915;-47
2022/06/13 06:24:08;;;;;;;;;;;;;;;;;;5050386;28;19978;-44
2022/06/13 06:26:34;;;;;;;;;;;;;;;;;;5054340;28;20003;-46
2022/06/13 06:29:00;;;;;;;;;;;;;;;;;;5048041;28;19919;-45
2022/06/13 06:31:26;;;;;;;;;;;;;;;;;;5048879;28;19909;-48
2022/06/13 06:33:53;;;;;;;;;;;;;;;;;;5068405;28;19908;-45
2022/06/13 06:36:19;;;;;;;;;;;;;;;;;;5068696;28;20473;-48
2022/06/13 06:38:46;;;;;;;;;;;;;;;;;;5068237;28;20298;-45
2022/06/13 06:41:12;;;;;;;;;;;;;;;;;;5068208;28;19951;-45
2022/06/13 06:43:38;;;;;;;;;;;;;;;;;;5068099;28;20328;-45
2022/06/13 06:46:04;;;;;;;;;;;;;;;;;;5066543;28;19959;-47
2022/06/13 06:48:30;;;;;;;;;;;;;;;;;;5067849;28;20011;-49
2022/06/13 06:50:56;;;;;;;;;;;;;;;;;;5067829;28;19908;-46
2022/06/13 06:53:22;;;;;;;;;;;;;;;;;;5067399;28;19916;-45
2022/06/13 07:01:17;;;;;;;;;;;;;;;;;;5048374;28;19954;-48
2022/06/13 07:03:43;;;;;;;;;;;;;;;;;;5064840;28;20349;-48
2022/06/13 07:06:09;;;;;;;;;;;;;;;;;;5059301;28;19947;-49
2022/06/13 07:08:36;;;;;;;;;;;;;;;;;;5067600;28;19908;-48
2022/06/13 07:13:46;;;;;;;;;;;;;;;;;;5080052;28;20357;-45
2022/06/13 07:16:12;;;;;;;;;;;;;;;;;;5071088;28;19939;-48
2022/06/13 07:18:38;;;;;;;;;;;;;;;;;;5076041;28;19916;-47
2022/06/13 07:21:04;;;;;;;;;;;;;;;;;;5075541;28;20402;-46
2022/06/13 07:23:30;;;;;;;;;;;;;;;;;;5062842;28;19908;-48
2022/06/13 07:25:56;;;;;;;;;;;;;;;;;;5050329;28;19913;-48
2022/06/13 07:28:23;;;;;;;;;;;;;;;;;;5068728;28;19916;-49
2022/06/13 07:30:49;;;;;;;;;;;;;;;;;;5088155;28;19908;-47
2022/06/13 07:33:15;;;;;;;;;;;;;;;;;;5068581;28;19954;-48
2022/06/13 07:35:41;;;;;;;;;;;;;;;;;;5064334;28;19982;-47
2022/06/13 07:38:16;;;;;;;;;;;;;;;;;;5054036;28;19912;-45
2022/06/13 07:40:42;;;;;;;;;;;;;;;;;;5056370;28;20003;-46
2022/06/13 07:43:09;;;;;;;;;;;;;;;;;;5056573;28;20372;-46
2022/06/13 07:45:35;;;;;;;;;;;;;;;;;;5073170;28;19908;-45
2022/06/13 07:48:01;;;;;;;;;;;;;;;;;;5087968;28;20038;-46
2022/06/13 07:50:27;;;;;;;;;;;;;;;;;;5075456;28;20003;-48
2022/06/13 07:52:53;;;;;;;;;;;;;;;;;;5067959;28;19908;-46
2022/06/13 07:55:19;;;;;;;;;;;;;;;;;;5064732;28;19912;-47
2022/06/13 07:57:46;;;;;;;;;;;;;;;;;;5058618;28;19912;-48
2022/06/13 08:00:12;;;;;;;;;;;;;;;;;;5064312;28;20261;-45
2022/06/13 08:02:38;;;;;;;;;;;;;;;;;;5070558;28;19920;-58
2022/06/13 08:05:04;;;;;;;;;;;;;;;;;;5065600;28;19915;-58
2022/06/13 08:07:30;;;;;;;;;;;;;;;;;;5077113;28;19908;-58
2022/06/13 08:09:56;;;;;;;;;;;;;;;;;;5066871;28;20322;-59
2022/06/13 08:12:21;;;;;;;;;;;;;;;;;;5066442;28;19942;-59
2022/06/13 08:14:48;;;;;;;;;;;;;;;;;;5063722;28;19919;-58
2022/06/13 08:17:13;;;;;;;;;;;;;;;;;;5067141;28;19913;-58
2022/06/13 08:19:39;;;;;;;;;;;;;;;;;;5053334;28;19915;-58
2022/06/13 08:22:05;;;;;;;;;;;;;;;;;;5057902;28;19909;-58
2022/06/13 08:24:32;;;;;;;;;;;;;;;;;;5073685;28;19909;-58
2022/06/13 08:26:58;;;;;;;;;;;;;;;;;;5069569;28;19912;-58
2022/06/13 08:29:23;;;;;;;;;;;;;;;;;;5067055;28;20441;-58
2022/06/13 08:31:49;;;;;;;;;;;;;;;;;;5066418;28;19904;-58
2022/06/13 08:34:15;;;;;;;;;;;;;;;;;;5066871;28;19906;-57
2022/06/13 08:36:42;;;;;;;;;;;;;;;;;;5065599;28;19957;-58
2022/06/13 08:39:07;;;;;;;;;;;;;;;;;;5066666;28;19912;-58
2022/06/13 08:41:33;;;;;;;;;;;;;;;;;;5046906;28;19908;-58
2022/06/13 08:44:00;;;;;;;;;;;;;;;;;;5054393;28;19967;-58
2022/06/13 08:46:26;;;;;;;;;;;;;;;;;;5061872;28;19912;-58
2022/06/13 08:48:52;;;;;;;;;;;;;;;;;;5066439;28;20306;-58
2022/06/13 08:51:18;;;;;;;;;;;;;;;;;;5064499;28;19909;-58
2022/06/13 08:53:44;;;;;;;;;;;;;;;;;;5059826;28;19965;-58
2022/06/13 08:56:11;;;;;;;;;;;;;;;;;;5073043;28;19912;-58
2022/06/13 08:58:37;;;;;;;;;;;;;;;;;;5067179;28;19939;-58
2022/06/13 09:01:03;;;;;;;;;;;;;;;;;;5062647;28;19975;-58
2022/06/13 09:03:29;;;;;;;;;;;;;;;;;;5053194;28;19916;-57
2022/06/13 09:05:55;;;;;;;;;;;;;;;;;;5053451;28;19991;-57
2022/06/13 09:08:21;;;;;;;;;;;;;;;;;;5046638;28;20055;-57
2022/06/13 09:10:47;;;;;;;;;;;;;;;;;;5049714;28;19983;-58
2022/06/13 09:13:13;;;;;;;;;;;;;;;;;;5055932;28;20283;-58
2022/06/13 09:15:39;;;;;;;;;;;;;;;;;;5066180;28;19912;-57
2022/06/13 09:18:05;;;;;;;;;;;;;;;;;;5079547;28;20006;-57
2022/06/13 09:20:31;;;;;;;;;;;;;;;;;;5072591;28;19909;-58
2022/06/13 09:22:57;;;;;;;;;;;;;;;;;;5087320;28;20020;-57
2022/06/13 09:25:23;;;;;;;;;;;;;;;;;;5074867;28;20019;-58
2022/06/13 09:27:49;;;;;;;;;;;;;;;;;;5069444;28;19912;-57
2022/06/13 09:30:15;;;;;;;;;;;;;;;;;;5066477;28;19912;-58
2022/06/13 09:32:42;;;;;;;;;;;;;;;;;;5065952;28;19904;-58
2022/06/13 09:35:08;;;;;;;;;;;;;;;;;;5067368;28;19912;-58
2022/06/13 09:37:34;;;;;;;;;;;;;;;;;;5083418;28;19943;-58
2022/06/13 09:40:00;;;;;;;;;;;;;;;;;;5089735;28;19954;-58
2022/06/13 09:42:25;;;;;;;;;;;;;;;;;;5088092;28;19998;-58
2022/06/13 09:44:51;;;;;;;;;;;;;;;;;;5069267;28;19919;-57
2022/06/13 09:47:17;;;;;;;;;;;;;;;;;;5067116;28;19920;-57
2022/06/13 09:49:43;;;;;;;;;;;;;;;;;;5069655;28;19915;-57
2022/06/13 09:52:09;;;;;;;;;;;;;;;;;;5075089;28;19962;-57
2022/06/13 09:54:35;;;;;;;;;;;;;;;;;;5055218;28;19912;-57
2022/06/13 09:57:01;;;;;;;;;;;;;;;;;;5054682;28;19950;-57
2022/06/13 09:59:27;;;;;;;;;;;;;;;;;;5053864;28;19995;-57
2022/06/13 10:01:53;;;;;;;;;;;;;;;;;;5049649;28;20349;-57
2022/06/13 10:04:19;;;;;;;;;;;;;;;;;;5070312;28;19931;-57
2022/06/13 10:06:45;;;;;;;;;;;;;;;;;;5067788;28;19955;-56
2022/06/13 10:09:12;;;;;;;;;;;;;;;;;;5070803;28;19916;-56
2022/06/13 10:11:38;;;;;;;;;;;;;;;;;;5068486;28;19912;-57
2022/06/13 10:14:06;;;;;;;;;;;;;;;;;;5069029;28;19995;-56
2022/06/13 10:16:32;;;;;;;;;;;;;;;;;;5051608;28;19934;-56
2022/06/13 10:18:58;;;;;;;;;;;;;;;;;;5058150;28;19916;-57
2022/06/13 10:21:24;;;;;;;;;;;;;;;;;;5069046;28;19904;-57
2022/06/13 10:23:50;;;;;;;;;;;;;;;;;;5070189;28;19911;-57
2022/06/13 10:26:16;;;;;;;;;;;;;;;;;;5080963;28;19931;-56
2022/06/13 10:28:42;;;;;;;;;;;;;;;;;;5072423;28;19912;-56
2022/06/13 10:31:08;;;;;;;;;;;;;;;;;;5058772;28;19911;-57
2022/06/13 10:33:33;;;;;;;;;;;;;;;;;;5077952;28;19916;-56
2022/06/13 10:35:59;;;;;;;;;;;;;;;;;;5086960;28;19908;-56
2022/06/13 10:38:25;;;;;;;;;;;;;;;;;;5089268;28;19908;-56
2022/06/13 10:40:52;;;;;;;;;;;;;;;;;;5059633;28;19995;-56
2022/06/13 10:43:18;;;;;;;;;;;;;;;;;;5058792;28;19951;-56
2022/06/13 10:45:44;;;;;;;;;;;;;;;;;;5064591;28;19961;-56
2022/06/13 10:48:10;;;;;;;;;;;;;;;;;;5065173;28;19912;-56
2022/06/13 10:50:36;;;;;;;;;;;;;;;;;;5073712;28;19908;-56
2022/06/13 10:53:02;;;;;;;;;;;;;;;;;;5081510;28;19904;-56
2022/06/13 10:55:28;;;;;;;;;;;;;;;;;;5067288;28;19962;-56
2022/06/13 10:57:54;;;;;;;;;;;;;;;;;;5060670;28;19959;-56
2022/06/13 11:00:20;;;;;;;;;;;;;;;;;;5071581;28;19912;-54
2022/06/13 11:02:46;;;;;;;;;;;;;;;;;;5060917;28;19912;-55
2022/06/13 11:05:12;;;;;;;;;;;;;;;;;;5055454;28;19912;-57
2022/06/13 11:07:38;;;;;;;;;;;;;;;;;;5078826;28;19962;-57
2022/06/13 11:10:04;;;;;;;;;;;;;;;;;;5075646;28;19912;-56
2022/06/13 11:12:30;;;;;;;;;;;;;;;;;;5076321;28;19981;-56
2022/06/13 11:23:10;;;;;;;;;;;;;;;;;;5068991;28;19927;-56
2022/06/13 11:25:36;;;;;;;;;;;;;;;;;;5094777;28;19908;-56
2022/06/13 11:28:01;;;;;;;;;;;;;;;;;;5067429;28;19912;-56
2022/06/13 11:30:28;;;;;;;;;;;;;;;;;;5080209;28;19908;-56
2022/06/13 11:32:54;;;;;;;;;;;;;;;;;;5058235;28;19999;-56
2022/06/13 11:35:20;;;;;;;;;;;;;;;;;;5073648;28;20415;-57
2022/06/13 11:37:46;;;;;;;;;;;;;;;;;;5077480;28;19904;-57
2022/06/13 11:40:12;;;;;;;;;;;;;;;;;;5075992;28;19918;-57
2022/06/13 11:42:38;;;;;;;;;;;;;;;;;;5077478;28;19908;-56
2022/06/13 11:45:04;;;;;;;;;;;;;;;;;;5052982;28;19970;-56
2022/06/13 11:47:30;;;;;;;;;;;;;;;;;;5067062;28;19908;-56
2022/06/13 11:49:56;;;;;;;;;;;;;;;;;;5074207;28;19983;-57
2022/06/13 11:55:06;;;;;;;;;;;;;;;;;;5066806;28;19938;-56
2022/06/13 11:57:32;;;;;;;;;;;;;;;;;;5072107;28;19909;-57
2022/06/13 11:59:58;;;;;;;;;;;;;;;;;;5067040;28;20430;-57
2022/06/13 12:02:24;;;;;;;;;;;;;;;;;;5070660;28;19962;-56
2022/06/13 12:04:50;;;;;;;;;;;;;;;;;;5059407;28;19904;-56
2022/06/13 12:07:16;;;;;;;;;;;;;;;;;;5067840;28;20406;-56
2022/06/13 12:09:43;;;;;;;;;;;;;;;;;;5076737;28;19916;-57
2022/06/13 12:12:10;;;;;;;;;;;;;;;;;;5067715;28;19908;-57
2022/06/13 12:14:36;;;;;;;;;;;;;;;;;;5068752;28;20011;-57
2022/06/13 12:17:02;;;;;;;;;;;;;;;;;;5068518;28;19998;-57
2022/06/13 12:19:28;;;;;;;;;;;;;;;;;;5074568;28;19915;-56
2022/06/13 12:21:54;;;;;;;;;;;;;;;;;;5073723;28;19912;-57
2022/06/13 12:24:19;;;;;;;;;;;;;;;;;;5070259;28;19979;-57
2022/06/13 12:26:46;;;;;;;;;;;;;;;;;;5061244;28;19983;-57
2022/06/13 12:29:12;;;;;;;;;;;;;;;;;;5070680;28;19920;-57
2022/06/13 12:31:38;;;;;;;;;;;;;;;;;;5076067;28;19908;-57
2022/06/13 12:34:04;;;;;;;;;;;;;;;;;;5078882;28;19922;-57
2022/06/13 12:36:30;;;;;;;;;;;;;;;;;;5069858;28;19971;-57
2022/06/13 12:38:56;;;;;;;;;;;;;;;;;;5070636;28;19908;-57
2022/06/13 12:41:25;;;;;;;;;;;;;;;;;;5069060;28;20391;-57
2022/06/13 12:43:50;;;;;;;;;;;;;;;;;;5069682;28;20117;-57
2022/06/13 12:46:16;;;;;;;;;;;;;;;;;;5070037;28;19999;-57
2022/06/13 12:48:42;;;;;;;;;;;;;;;;;;5058263;28;20677;-57
2022/06/13 12:51:08;;;;;;;;;;;;;;;;;;5073095;28;19912;-56
2022/06/13 12:53:35;;;;;;;;;;;;;;;;;;5074090;28;19919;-58
2022/06/13 12:56:00;;;;;;;;;;;;;;;;;;5074213;28;19947;-56
2022/06/13 12:58:26;;;;;;;;;;;;;;;;;;5066679;28;19973;-56
2022/06/13 13:00:52;;;;;;;;;;;;;;;;;;5070030;28;19961;-57
2022/06/13 13:03:18;;;;;;;;;;;;;;;;;;5065539;28;19908;-57
2022/06/13 13:05:44;;;;;;;;;;;;;;;;;;5063654;28;20015;-57
2022/06/13 13:08:10;;;;;;;;;;;;;;;;;;5056134;28;20403;-57
2022/06/13 13:10:36;;;;;;;;;;;;;;;;;;5066022;28;20416;-56
2022/06/13 13:13:02;;;;;;;;;;;;;;;;;;5068716;28;19908;-57
2022/06/13 13:15:28;;;;;;;;;;;;;;;;;;5074399;28;19915;-57
2022/06/13 13:17:54;;;;;;;;;;;;;;;;;;5067057;28;19912;-57
2022/06/13 13:20:20;;;;;;;;;;;;;;;;;;5070165;28;19920;-57
2022/06/13 13:22:46;;;;;;;;;;;;;;;;;;5070097;28;19908;-56
2022/06/13 13:25:12;;;;;;;;;;;;;;;;;;5077395;28;19904;-57
2022/06/13 13:27:38;;;;;;;;;;;;;;;;;;5070005;28;19915;-57
2022/06/13 13:30:05;;;;;;;;;;;;;;;;;;5067137;28;19915;-57
2022/06/13 13:32:31;;;;;;;;;;;;;;;;;;5062619;28;20383;-57
2022/06/13 13:34:57;;;;;;;;;;;;;;;;;;5070299;28;20003;-57
2022/06/13 13:37:23;;;;;;;;;;;;;;;;;;5068656;28;20007;-58
2022/06/13 13:39:50;;;;;;;;;;;;;;;;;;5069066;28;19912;-57
2022/06/13 13:42:16;;;;;;;;;;;;;;;;;;5069657;28;20354;-57
2022/06/13 13:44:42;;;;;;;;;;;;;;;;;;5068908;28;19908;-57
2022/06/13 13:47:09;;;;;;;;;;;;;;;;;;5069017;28;19904;-57
2022/06/13 13:49:35;;;;;;;;;;;;;;;;;;5065275;28;19951;-57
2022/06/13 13:52:01;;;;;;;;;;;;;;;;;;5068247;28;19948;-57
2022/06/13 13:54:27;;;;;;;;;;;;;;;;;;5068472;28;19950;-57
2022/06/13 13:56:53;;;;;;;;;;;;;;;;;;5068701;28;19908;-57
2022/06/13 13:59:19;;;;;;;;;;;;;;;;;;5070317;28;20272;-56
2022/06/13 14:01:45;;;;;;;;;;;;;;;;;;5070409;28;19915;-57
2022/06/13 14:04:11;;;;;;;;;;;;;;;;;;5069612;28;19957;-57
2022/06/13 14:06:37;;;;;;;;;;;;;;;;;;5068635;28;20349;-58
2022/06/13 14:09:04;;;;;;;;;;;;;;;;;;5068040;28;20007;-57
2022/06/13 14:11:31;;;;;;;;;;;;;;;;;;5068271;28;19908;-57
2022/06/13 14:13:57;;;;;;;;;;;;;;;;;;5068975;28;19904;-57
2022/06/13 14:16:22;;;;;;;;;;;;;;;;;;5068216;28;19908;-57
2022/06/13 14:18:50;;;;;;;;;;;;;;;;;;5068451;28;20488;-57
2022/06/13 14:21:17;;;;;;;;;;;;;;;;;;5057111;28;19928;-57
2022/06/13 14:23:43;;;;;;;;;;;;;;;;;;5066236;28;19942;-57
2022/06/13 14:26:09;;;;;;;;;;;;;;;;;;5070473;28;19951;-57
2022/06/13 14:28:35;;;;;;;;;;;;;;;;;;5069276;28;20003;-57
2022/06/13 14:31:05;;;;;;;;;;;;;;;;;;5051670;28;20343;-57
2022/06/13 14:36:15;;;;;;;;;;;;;;;;;;5069969;28;19955;-57
2022/06/13 14:38:41;;;;;;;;;;;;;;;;;;5068866;28;19948;-57
2022/06/13 14:41:11;;;;;;;;;;;;;;;;;;5054511;28;20003;-56
2022/06/13 14:43:37;;;;;;;;;;;;;;;;;;5046757;28;20491;-57
2022/06/13 14:46:03;;;;;;;;;;;;;;;;;;5060595;28;20390;-56
2022/06/13 14:48:29;;;;;;;;;;;;;;;;;;5066974;28;20292;-57
2022/06/13 14:50:54;;;;;;;;;;;;;;;;;;5062224;28;20303;-56
2022/06/13 14:53:20;;;;;;;;;;;;;;;;;;5066703;28;19913;-56
2022/06/13 14:55:47;;;;;;;;;;;;;;;;;;5070964;28;19916;-57
2022/06/13 14:58:13;;;;;;;;;;;;;;;;;;5072529;28;19958;-58
2022/06/13 15:00:39;;;;;;;;;;;;;;;;;;5055231;28;19943;-55
2022/06/13 15:03:05;;;;;;;;;;;;;;;;;;5051572;28;19912;-57
2022/06/13 15:05:32;;;;;;;;;;;;;;;;;;5062636;28;19905;-55
2022/06/13 15:07:58;;;;;;;;;;;;;;;;;;5067691;28;20291;-56
2022/06/13 15:10:24;;;;;;;;;;;;;;;;;;5068762;28;19915;-57
2022/06/13 15:12:51;;;;;;;;;;;;;;;;;;5071388;28;19942;-57
2022/06/13 15:15:17;;;;;;;;;;;;;;;;;;5067085;28;19926;-56
2022/06/13 15:17:43;;;;;;;;;;;;;;;;;;5067980;28;19908;-56
2022/06/13 15:20:10;;;;;;;;;;;;;;;;;;5067626;28;19954;-57
2022/06/13 15:22:36;;;;;;;;;;;;;;;;;;5065305;28;19919;-56
2022/06/13 15:25:02;;;;;;;;;;;;;;;;;;5067857;28;19994;-56
2022/06/13 15:27:28;;;;;;;;;;;;;;;;;;5074969;28;19908;-57
2022/06/13 15:29:53;;;;;;;;;;;;;;;;;;5071938;28;19927;-57
2022/06/13 15:32:19;;;;;;;;;;;;;;;;;;5074961;28;20520;-56
2022/06/13 15:34:45;;;;;;;;;;;;;;;;;;5068265;28;19951;-56
2022/06/13 15:37:11;;;;;;;;;;;;;;;;;;5069424;28;19962;-57
2022/06/13 15:39:37;;;;;;;;;;;;;;;;;;5048236;28;19913;-56
2022/06/13 15:42:03;;;;;;;;;;;;;;;;;;5064479;28;19923;-56
2022/06/13 15:44:29;;;;;;;;;;;;;;;;;;5066835;28;19935;-57
2022/06/13 15:46:55;;;;;;;;;;;;;;;;;;5068361;28;20013;-57
2022/06/13 15:49:21;;;;;;;;;;;;;;;;;;5067616;28;19919;-56
2022/06/13 15:51:47;;;;;;;;;;;;;;;;;;5062729;28;19966;-57
2022/06/13 15:54:13;;;;;;;;;;;;;;;;;;5067512;28;20010;-56
2022/06/13 15:56:39;;;;;;;;;;;;;;;;;;5086768;28;19912;-57
2022/06/13 15:59:05;;;;;;;;;;;;;;;;;;5087094;28;19904;-56
2022/06/13 16:01:31;;;;;;;;;;;;;;;;;;5071371;28;19912;-57
2022/06/13 16:03:57;;;;;;;;;;;;;;;;;;5065853;28;19908;-57
2022/06/13 16:06:23;;;;;;;;;;;;;;;;;;5063617;28;19912;-57
2022/06/13 16:08:49;;;;;;;;;;;;;;;;;;5065297;28;19919;-57
2022/06/13 16:11:14;;;;;;;;;;;;;;;;;;5065162;28;20003;-57
2022/06/13 16:13:40;;;;;;;;;;;;;;;;;;5065079;28;19905;-57
2022/06/13 16:16:06;;;;;;;;;;;;;;;;;;5063706;28;19997;-57
2022/06/13 16:18:33;;;;;;;;;;;;;;;;;;5065042;28;19907;-57
2022/06/13 16:20:59;;;;;;;;;;;;;;;;;;5065384;28;19904;-57
2022/06/13 16:23:26;;;;;;;;;;;;;;;;;;5065193;28;19907;-57
2022/06/13 16:25:52;;;;;;;;;;;;;;;;;;5065099;28;19908;-57
2022/06/13 16:28:18;;;;;;;;;;;;;;;;;;5064958;28;20291;-57
2022/06/13 16:30:44;;;;;;;;;;;;;;;;;;5064731;28;19999;-57
2022/06/13 16:33:11;;;;;;;;;;;;;;;;;;5073314;28;20786;-57
2022/06/13 16:35:37;;;;;;;;;;;;;;;;;;5070269;28;20295;-57
2022/06/13 16:38:04;;;;;;;;;;;;;;;;;;5065627;28;19923;-57
2022/06/13 16:40:30;;;;;;;;;;;;;;;;;;5069734;28;19912;-58
2022/06/13 16:42:55;;;;;;;;;;;;;;;;;;5053711;28;19919;-57
2022/06/13 16:45:21;;;;;;;;;;;;;;;;;;5066973;28;19912;-57
2022/06/13 16:47:47;;;;;;;;;;;;;;;;;;5068743;28;19962;-56
2022/06/13 16:50:15;;;;;;;;;;;;;;;;;;5067479;28;19952;-56
2022/06/13 16:52:41;;;;;;;;;;;;;;;;;;5083678;28;19947;-56
2022/06/13 16:55:07;;;;;;;;;;;;;;;;;;5088990;28;20402;-57
2022/06/13 16:57:33;;;;;;;;;;;;;;;;;;5088816;28;19912;-56
2022/06/13 16:59:59;;;;;;;;;;;;;;;;;;5077056;28;20382;-57
2022/06/13 17:02:25;;;;;;;;;;;;;;;;;;5077991;28;19912;-57
2022/06/13 17:04:51;;;;;;;;;;;;;;;;;;5072455;28;20252;-57